MET2388 - Rochester to Kansas City

Bombardier Dash-8-Q200
838AH
1 hr 15 mins
294 nm
Scheduled - Daily

Bid/PiRep Status

Bid was submitted on Dec 16 2016.

PiRep # 74389: Approved by Dave Nichols on December 20th, 2016 5:17 UTC

Departure

Departing from
Rochester (RST)
Departure gate
A4
Scheduled Departure
GMT 2035
Local 1535
METAR KRST 270754Z AUTO 27005KT 10SM CLR 13/11 A2988 RMK AO2 SLP116 T01330106
TAF KRST 270520Z 2706/2806 23005KT P6SM SCT250 FM271400 30005KT P6SM BKN150 FM271900 34005KT P6SM OVC070

Route Map

Planning Resources

KRST LMN BSQ BSQ4
RST MCW J25 DSM LMN BQS4
KRST ZUTEL DSM STJ MAXEE KMCI
MCW DSM LMN BQS4
KRST DSM KMCI
Route:
OFP Layout:
Units:
Detailed Navlog:
ETOPS Planning:
Plan Stepclimbs:
Runway Analysis:
Include NOTAMS:
FIR NOTAMS:
Flight Maps:

Return Flights

MET2385
Bombardier Dash-8-Q200
1400 GMT
MET2387
Bombardier Dash-8-Q200
1900 GMT

Popularity

Hub Current Bids PiReps this month Total PiReps
KMCI 0 0 4
KLAX 0 0 0
KBOS 0 0 0